createdAt,value
2022-11-24T00:01:20.290Z,98418.69
2022-11-24T00:03:57.204Z,98430.81
2022-11-24T00:06:25.278Z,98430.81
2022-11-24T00:08:53.904Z,98433.16
2022-11-24T00:11:24.043Z,98443.59
2022-11-24T00:13:52.132Z,98444.25
2022-11-24T00:16:23.219Z,98448.56
2022-11-24T00:18:53.315Z,98466.34
2022-11-24T00:21:21.887Z,98460.56
2022-11-24T00:23:50.743Z,98463.25
2022-11-24T00:26:24.012Z,98463.13
2022-11-24T00:28:54.858Z,98456.97
2022-11-24T00:31:25.117Z,98466.97
2022-11-24T00:33:55.479Z,98479.28
2022-11-24T00:36:25.717Z,98472.13
2022-11-24T00:38:55.618Z,98476.63
2022-11-24T00:41:24.297Z,98472.31
2022-11-24T00:43:52.922Z,98484.25
2022-11-24T00:46:21.384Z,98502.72
2022-11-24T00:48:49.130Z,98499.53
2022-11-24T00:51:18.388Z,98498.06
2022-11-24T00:53:46.428Z,98499.38
2022-11-24T00:56:14.155Z,98508.03
2022-11-24T00:58:42.264Z,98507.72
2022-11-24T01:01:17.704Z,98503.22
2022-11-24T01:03:46.884Z,98523.47
2022-11-24T01:06:18.137Z,98510.53
2022-11-24T01:08:46.580Z,98527.81
2022-11-24T01:11:16.104Z,98521.50
2022-11-24T01:13:46.564Z,98524.66
2022-11-24T01:16:17.692Z,98520.00
2022-11-24T01:18:45.755Z,98525.66
2022-11-24T01:21:14.334Z,98532.28
2022-11-24T01:23:41.971Z,98534.59
2022-11-24T01:26:12.160Z,98544.72
2022-11-24T01:28:46.302Z,98556.16
2022-11-24T01:31:15.665Z,98552.53
2022-11-24T01:33:43.529Z,98561.47
2022-11-24T01:36:11.783Z,98554.19
2022-11-24T01:38:39.406Z,98559.34
2022-11-24T01:41:11.527Z,98573.28
2022-11-24T01:43:39.741Z,98555.34
2022-11-24T01:46:31.017Z,98560.16
2022-11-24T01:49:21.965Z,98562.16
2022-11-24T01:51:55.666Z,98570.94
2022-11-24T01:54:36.491Z,98579.94
2022-11-24T01:57:17.878Z,98569.63
2022-11-24T01:59:49.434Z,98577.09
2022-11-24T02:02:22.195Z,98581.09
2022-11-24T02:04:51.245Z,98587.72
2022-11-24T02:07:19.186Z,98599.19
2022-11-24T02:09:55.127Z,98584.09
2022-11-24T02:12:26.264Z,98588.41
2022-11-24T02:14:56.083Z,98592.22
2022-11-24T02:17:23.647Z,98593.88
2022-11-24T02:20:08.105Z,98603.16
2022-11-24T02:22:57.205Z,98625.25
2022-11-24T02:25:46.395Z,98623.25
2022-11-24T02:28:18.187Z,98626.59
2022-11-24T02:30:46.201Z,98612.81
2022-11-24T02:33:14.355Z,98626.41
2022-11-24T02:35:42.534Z,98648.00
2022-11-24T02:38:14.195Z,98640.84
2022-11-24T02:40:46.685Z,98632.88
2022-11-24T02:43:18.084Z,98636.38
2022-11-24T02:45:45.802Z,98641.53
2022-11-24T02:48:16.737Z,98638.88
2022-11-24T02:50:44.539Z,98651.16
2022-11-24T02:53:12.100Z,98647.34
2022-11-24T02:55:39.755Z,98654.13
2022-11-24T02:58:07.336Z,98657.47
2022-11-24T03:00:34.915Z,98665.78
2022-11-24T03:03:03.074Z,98668.28
2022-11-24T03:05:31.137Z,98656.63
2022-11-24T03:07:58.800Z,98658.66
2022-11-24T03:10:26.535Z,98661.44
2022-11-24T03:12:54.854Z,98668.78
2022-11-24T03:15:23.872Z,98691.69
2022-11-24T03:17:54.990Z,98711.09
2022-11-24T03:20:23.124Z,98699.31
2022-11-24T03:22:50.753Z,98703.97
2022-11-24T03:25:18.957Z,98716.91
2022-11-24T03:27:47.197Z,98723.72
2022-11-24T03:30:15.569Z,98725.19
2022-11-24T03:32:43.280Z,98738.78
2022-11-24T03:35:10.951Z,98734.78
2022-11-24T03:37:38.657Z,98728.16
2022-11-24T03:40:07.051Z,98728.47
2022-11-24T03:42:34.639Z,98738.41
2022-11-24T03:45:29.831Z,98739.88
2022-11-24T03:47:52.856Z,98748.19
2022-11-24T03:50:20.420Z,98736.19
2022-11-24T03:52:48.047Z,98731.88
2022-11-24T03:55:15.693Z,98739.03
2022-11-24T03:57:43.237Z,98734.72
2022-11-24T04:00:12.046Z,98734.84
2022-11-24T04:02:39.677Z,98750.78
2022-11-24T04:05:07.931Z,98745.34
2022-11-24T04:07:35.701Z,98759.59
2022-11-24T04:10:03.799Z,98754.13
2022-11-24T04:12:46.509Z,98769.06
2022-11-24T04:15:19.900Z,98768.06
2022-11-24T04:17:49.460Z,98774.06
2022-11-24T04:20:17.898Z,98778.53
2022-11-24T04:22:45.484Z,98780.38
2022-11-24T04:25:13.325Z,98784.81
2022-11-24T04:27:40.928Z,98800.59
2022-11-24T04:30:08.908Z,98805.09
2022-11-24T04:32:36.962Z,98817.38
2022-11-24T04:35:05.141Z,98824.44
2022-11-24T04:37:32.723Z,98833.19
2022-11-24T04:40:00.419Z,98821.84
2022-11-24T04:42:28.046Z,98829.44
2022-11-24T04:44:55.779Z,98838.41
2022-11-24T04:47:25.093Z,98836.56
2022-11-24T04:49:53.466Z,98841.88
2022-11-24T04:52:23.271Z,98853.50
2022-11-24T04:54:51.385Z,98865.75
2022-11-24T04:57:24.347Z,98871.91
2022-11-24T04:59:52.988Z,98861.44
2022-11-24T05:02:21.404Z,98875.25
2022-11-24T05:04:49.014Z,98879.72
2022-11-24T05:07:19.122Z,98868.94
2022-11-24T05:10:06.155Z,98871.91
2022-11-24T05:12:33.776Z,98871.91
2022-11-24T05:15:02.585Z,98876.38
2022-11-24T05:17:32.831Z,98880.38
2022-11-24T05:20:00.932Z,98890.88
2022-11-24T05:22:29.979Z,98885.38
2022-11-24T05:24:58.098Z,98892.38
2022-11-24T05:27:25.737Z,98906.63
2022-11-24T05:29:53.302Z,98917.22
2022-11-24T05:32:20.825Z,98902.31
2022-11-24T05:34:48.431Z,98882.59
2022-11-24T05:37:16.114Z,98901.69
2022-11-24T05:39:43.685Z,98911.19
2022-11-24T05:42:30.314Z,98904.88
2022-11-24T05:44:57.897Z,98917.31
2022-11-24T05:47:25.765Z,98915.09
2022-11-24T05:49:53.389Z,98916.56
2022-11-24T05:52:20.941Z,98926.66
2022-11-24T05:54:48.513Z,98937.28
2022-11-24T05:57:17.638Z,98933.63
2022-11-24T05:59:45.572Z,98929.84
2022-11-24T06:02:14.163Z,98945.47
2022-11-24T06:04:41.915Z,98951.44
2022-11-24T06:07:13.794Z,98942.34
2022-11-24T06:09:42.965Z,98947.19
2022-11-24T06:12:12.640Z,98956.97
2022-11-24T06:14:40.763Z,98947.19
2022-11-24T06:17:09.965Z,98941.56
2022-11-24T06:19:41.738Z,98950.22
2022-11-24T06:22:09.704Z,98946.44
2022-11-24T06:24:37.360Z,98950.72
2022-11-24T06:27:04.907Z,98961.34
2022-11-24T06:29:32.444Z,98958.03
2022-11-24T06:32:00.170Z,98961.53
2022-11-24T06:34:27.764Z,98973.28
2022-11-24T06:36:55.340Z,98972.88
2022-11-24T06:39:22.865Z,98959.09
2022-11-24T06:41:50.917Z,98970.41
2022-11-24T06:44:19.166Z,98978.06
2022-11-24T06:46:46.983Z,98975.94
2022-11-24T06:49:14.763Z,98978.41
2022-11-24T06:51:42.815Z,98992.38
2022-11-24T06:54:14.039Z,98984.94
2022-11-24T06:56:41.613Z,98986.47
2022-11-24T06:59:17.612Z,98997.91
2022-11-24T07:01:45.710Z,99001.25
2022-11-24T07:04:13.744Z,98997.63
2022-11-24T07:06:41.724Z,99003.63
2022-11-24T07:09:11.999Z,99003.44
2022-11-24T07:11:40.390Z,99021.72
2022-11-24T07:14:08.613Z,99015.41
2022-11-24T07:16:36.620Z,99013.63
2022-11-24T07:19:04.606Z,99020.59
2022-11-24T07:21:32.702Z,99020.72
2022-11-24T07:24:00.492Z,99034.19
2022-11-24T07:26:28.132Z,99036.31
2022-11-24T07:28:55.678Z,99046.25
2022-11-24T07:31:26.676Z,99049.50
2022-11-24T07:33:55.600Z,99031.69
2022-11-24T07:36:23.483Z,99035.09
2022-11-24T07:38:51.257Z,99039.19
2022-11-24T07:41:19.864Z,99034.47
2022-11-24T07:43:48.560Z,99025.00
2022-11-24T07:46:19.168Z,99028.13
2022-11-24T07:48:47.182Z,99028.53
2022-11-24T07:51:15.664Z,99030.66
2022-11-24T07:53:43.843Z,99041.75
2022-11-24T07:56:12.655Z,99040.50
2022-11-24T07:58:40.203Z,99039.16
2022-11-24T08:01:13.502Z,99041.81
2022-11-24T08:03:42.571Z,99029.19
2022-11-24T08:06:31.873Z,99030.72
2022-11-24T08:08:58.756Z,99033.53
2022-11-24T08:11:26.829Z,99045.81
2022-11-24T08:13:54.409Z,99037.72
2022-11-24T08:16:22.059Z,99040.09
2022-11-24T08:18:51.779Z,99040.63
2022-11-24T08:21:20.872Z,99033.31
2022-11-24T08:23:49.210Z,99027.88
2022-11-24T08:26:18.981Z,99025.75
2022-11-24T08:28:47.921Z,99024.47
2022-11-24T08:31:20.809Z,99018.56
2022-11-24T08:33:48.992Z,99017.13
2022-11-24T08:36:18.803Z,99013.88
2022-11-24T08:38:49.908Z,99016.22
2022-11-24T08:41:17.921Z,99008.63
2022-11-24T08:43:45.501Z,99009.97
2022-11-24T08:46:17.168Z,99011.19
2022-11-24T08:48:50.244Z,99011.72
2022-11-24T08:51:21.307Z,99005.97
2022-11-24T08:53:49.049Z,98995.38
2022-11-24T08:56:17.002Z,98993.78
2022-11-24T08:58:48.458Z,98988.84
2022-11-24T09:01:17.884Z,98982.09
2022-11-24T09:03:50.668Z,98977.94
2022-11-24T09:06:23.199Z,98975.97
2022-11-24T09:08:55.679Z,98979.31
2022-11-24T09:11:25.062Z,98975.66
2022-11-24T09:13:53.878Z,98983.00
2022-11-24T09:16:26.042Z,98979.03
2022-11-24T09:18:59.720Z,98971.44
2022-11-24T09:21:28.334Z,98950.53
2022-11-24T09:23:56.093Z,98956.22
2022-11-24T09:26:26.451Z,98939.94
2022-11-24T09:28:55.702Z,98934.16
2022-11-24T09:31:30.557Z,98927.03
2022-11-24T09:33:59.567Z,98922.38
2022-11-24T09:36:28.037Z,98925.19
2022-11-24T09:38:55.936Z,98915.00
2022-11-24T09:41:49.824Z,98909.69
2022-11-24T09:44:26.893Z,98912.66
2022-11-24T09:47:14.646Z,98922.91
2022-11-24T09:49:54.456Z,98921.25
2022-11-24T09:52:50.353Z,98917.59
2022-11-24T09:55:42.289Z,98910.81
2022-11-24T09:58:17.693Z,98911.03
2022-11-24T10:00:48.751Z,98896.41
2022-11-24T10:03:30.572Z,98897.94
2022-11-24T10:05:59.528Z,98880.34
2022-11-24T10:09:05.695Z,98868.41
2022-11-24T10:11:42.380Z,98870.91
2022-11-24T10:14:31.820Z,98854.16
2022-11-24T10:17:21.575Z,98858.81
2022-11-24T10:19:58.275Z,98847.69
2022-11-24T10:23:04.297Z,98858.19
2022-11-24T10:25:42.602Z,98844.38
2022-11-24T10:28:14.798Z,98827.06
2022-11-24T10:30:43.479Z,98818.25
2022-11-24T10:33:28.706Z,98830.22
2022-11-24T10:36:09.693Z,98846.03
2022-11-24T10:38:56.756Z,98849.19
2022-11-24T10:41:37.735Z,98839.69
2022-11-24T10:44:05.337Z,98829.22
2022-11-24T10:46:39.029Z,98820.09
2022-11-24T10:49:07.047Z,98809.59
2022-11-24T10:52:11.438Z,98808.28
2022-11-24T10:54:56.163Z,98808.88
2022-11-24T10:57:38.463Z,98816.00
2022-11-24T11:00:21.392Z,98827.66
2022-11-24T11:02:50.743Z,98820.00
2022-11-24T11:05:31.823Z,98816.97
2022-11-24T11:08:14.452Z,98817.28
2022-11-24T11:10:46.345Z,98799.31
2022-11-24T11:13:28.498Z,98798.28
2022-11-24T11:15:57.911Z,98784.63
2022-11-24T11:18:34.567Z,98762.97
2022-11-24T11:21:03.850Z,98773.81
2022-11-24T11:23:34.629Z,98763.63
2022-11-24T11:26:38.725Z,98766.78
2022-11-24T11:34:55.540Z,98744.56
2022-11-24T11:37:27.796Z,98736.41
2022-11-24T11:39:56.058Z,98729.91
2022-11-24T11:43:01.852Z,98728.06
2022-11-24T11:45:21.062Z,98725.56
2022-11-24T11:47:51.248Z,98713.44
2022-11-24T11:50:25.805Z,98710.28
2022-11-24T11:53:10.659Z,98689.13
2022-11-24T11:55:54.835Z,98668.16
2022-11-24T11:58:34.598Z,98666.88
2022-11-24T12:01:23.362Z,98652.41
2022-11-24T12:04:09.374Z,98640.72
2022-11-24T12:06:54.012Z,98646.88
2022-11-24T12:09:49.831Z,98639.56
2022-11-24T12:12:59.739Z,98630.75
2022-11-24T12:15:32.634Z,98614.41
2022-11-24T12:18:40.304Z,98610.72
2022-11-24T12:21:53.569Z,98614.03
2022-11-24T12:24:33.229Z,98610.22
2022-11-24T12:27:10.088Z,98609.72
2022-11-24T12:29:48.288Z,98603.56
2022-11-24T12:32:52.860Z,98598.75
2022-11-24T12:35:43.714Z,98596.44
2022-11-24T12:38:45.379Z,98600.50
2022-11-24T12:41:40.316Z,98599.16
2022-11-24T12:44:11.560Z,98588.44
2022-11-24T12:46:59.420Z,98569.84
2022-11-24T12:49:45.714Z,98583.50
2022-11-24T12:52:25.461Z,98579.38
2022-11-24T12:54:54.475Z,98579.19
2022-11-24T12:57:41.349Z,98586.56
2022-11-24T13:00:57.125Z,98618.50
2022-11-24T13:03:39.888Z,98616.13
2022-11-24T13:06:25.685Z,98624.13
2022-11-24T13:08:53.663Z,98635.13
2022-11-24T13:11:21.138Z,98622.81
2022-11-24T13:14:06.240Z,98629.31
2022-11-24T13:16:37.213Z,98644.94
2022-11-24T13:19:29.133Z,98631.81
2022-11-24T13:22:13.891Z,98629.31
2022-11-24T13:24:43.173Z,98634.63
2022-11-24T13:27:13.517Z,98626.66
2022-11-24T13:29:46.497Z,98622.00
2022-11-24T13:32:17.819Z,98619.31
2022-11-24T13:34:55.304Z,98627.47
2022-11-24T13:37:31.699Z,98640.44
2022-11-24T13:40:23.192Z,98632.63
2022-11-24T13:42:57.683Z,98630.63
2022-11-24T13:45:40.302Z,98605.66
2022-11-24T13:48:21.444Z,98619.13
2022-11-24T13:50:49.631Z,98610.63
2022-11-24T13:53:38.550Z,98619.47
2022-11-24T13:56:22.723Z,98616.44
2022-11-24T13:58:53.967Z,98615.09
2022-11-24T14:01:32.527Z,98606.03
2022-11-24T14:04:35.232Z,98617.78
2022-11-24T14:07:09.506Z,98612.69
2022-11-24T14:09:43.701Z,98627.25
2022-11-24T14:12:27.978Z,98618.53
2022-11-24T14:15:23.598Z,98617.38
2022-11-24T14:17:51.338Z,98619.72
2022-11-24T14:20:28.312Z,98611.81
2022-11-24T14:22:56.245Z,98605.44
2022-11-24T14:25:31.031Z,98601.59
2022-11-24T14:28:00.425Z,98612.63
2022-11-24T14:30:28.374Z,98614.03
2022-11-24T14:33:01.540Z,98632.88
2022-11-24T14:35:31.808Z,98629.75
2022-11-24T14:38:04.794Z,98624.97
2022-11-24T14:40:54.737Z,98625.06
2022-11-24T14:43:31.554Z,98612.19
2022-11-24T14:46:09.942Z,98610.66
2022-11-24T14:48:48.765Z,98614.59
2022-11-24T14:51:25.274Z,98619.38
2022-11-24T14:53:58.020Z,98622.94
2022-11-24T14:56:50.721Z,98631.47
2022-11-24T14:59:24.163Z,98629.47
2022-11-24T15:01:52.490Z,98624.22
2022-11-24T15:04:54.185Z,98626.47
2022-11-24T15:07:24.184Z,98631.06
2022-11-24T15:09:58.527Z,98632.59
2022-11-24T15:12:37.903Z,98631.28
2022-11-24T15:15:15.102Z,98636.47
2022-11-24T15:17:53.218Z,98648.66
2022-11-24T15:20:41.788Z,98640.66
2022-11-24T15:23:12.136Z,98636.47
2022-11-24T15:25:39.751Z,98641.28
2022-11-24T15:28:08.722Z,98631.44
2022-11-24T15:30:37.550Z,98645.44
2022-11-24T15:33:14.639Z,98631.44
2022-11-24T15:35:43.141Z,98636.47
2022-11-24T15:38:10.779Z,98637.19
2022-11-24T15:40:39.741Z,98628.88
2022-11-24T15:43:32.098Z,98626.44
2022-11-24T15:46:01.395Z,98632.28
2022-11-24T15:48:29.631Z,98622.63
2022-11-24T15:50:58.920Z,98630.81
2022-11-24T15:53:32.183Z,98629.50
2022-11-24T15:56:01.718Z,98628.34
2022-11-24T15:58:29.361Z,98633.34
2022-11-24T16:00:57.124Z,98635.06
2022-11-24T16:03:46.491Z,98634.09
2022-11-24T16:06:20.586Z,98634.09
2022-11-24T16:08:51.194Z,98628.47
2022-11-24T16:11:18.765Z,98641.13
2022-11-24T16:13:51.930Z,98656.94
2022-11-24T16:16:22.732Z,98648.47
2022-11-24T16:18:50.747Z,98646.00
2022-11-24T16:21:18.328Z,98658.44
2022-11-24T16:23:46.665Z,98654.47
2022-11-24T16:26:14.369Z,98659.31
2022-11-24T16:28:42.915Z,98652.47
2022-11-24T16:31:10.473Z,98647.00
2022-11-24T16:33:40.800Z,98636.53
2022-11-24T16:36:08.840Z,98631.53
2022-11-24T16:38:36.440Z,98633.22
2022-11-24T16:41:04.100Z,98640.53
2022-11-24T16:43:31.701Z,98645.84
2022-11-24T16:46:23.000Z,98634.72
2022-11-24T16:48:53.031Z,98653.34
2022-11-24T16:51:22.600Z,98635.72
2022-11-24T16:53:58.561Z,98651.19
2022-11-24T16:56:27.564Z,98652.69
2022-11-24T16:58:55.417Z,98657.50
2022-11-24T17:01:23.253Z,98654.69
2022-11-24T17:03:50.922Z,98655.84
2022-11-24T17:06:19.137Z,98651.00
2022-11-24T17:08:47.694Z,98651.34
2022-11-24T17:11:16.617Z,98646.41
2022-11-24T17:13:45.694Z,98649.72
2022-11-24T17:16:16.554Z,98650.72
2022-11-24T17:18:44.763Z,98657.16
2022-11-24T17:21:14.862Z,98653.81
2022-11-24T17:23:42.623Z,98661.66
2022-11-24T17:26:18.931Z,98667.13
2022-11-24T17:28:46.622Z,98669.94
2022-11-24T17:31:17.182Z,98666.63
2022-11-24T17:33:44.849Z,98663.13
2022-11-24T17:36:12.460Z,98660.47
2022-11-24T17:38:40.076Z,98665.63
2022-11-24T17:41:07.892Z,98655.97
2022-11-24T17:43:35.563Z,98661.16
2022-11-24T17:46:04.404Z,98662.66
2022-11-24T17:48:32.830Z,98670.81
2022-11-24T17:51:27.404Z,98658.66
2022-11-24T17:53:57.374Z,98665.00
2022-11-24T17:56:27.288Z,98668.31
2022-11-24T17:58:59.742Z,98666.13
2022-11-24T18:01:32.433Z,98684.41
2022-11-24T18:04:00.187Z,98679.91
2022-11-24T18:06:28.982Z,98680.56
2022-11-24T18:08:57.822Z,98686.22
2022-11-24T18:11:31.492Z,98682.06
2022-11-24T18:14:02.530Z,98694.50
2022-11-24T18:16:35.055Z,98688.38
2022-11-24T18:19:09.326Z,98695.53
2022-11-24T18:21:41.882Z,98700.66
2022-11-24T18:24:11.195Z,98691.03
2022-11-24T18:26:40.451Z,98679.72
2022-11-24T18:29:08.157Z,98692.19
2022-11-24T18:31:36.288Z,98689.72
2022-11-24T18:34:05.654Z,98682.88
2022-11-24T18:36:33.937Z,98685.69
2022-11-24T18:39:03.404Z,98686.38
2022-11-24T18:41:31.920Z,98683.88
2022-11-24T18:44:02.533Z,98678.41
2022-11-24T18:46:30.213Z,98679.56
2022-11-24T18:48:57.832Z,98686.00
2022-11-24T18:51:25.478Z,98678.22
2022-11-24T18:54:00.135Z,98690.00
2022-11-24T18:56:28.062Z,98711.44
2022-11-24T18:58:56.524Z,98718.41
2022-11-24T19:01:27.763Z,98720.38
2022-11-24T19:03:57.939Z,98720.53
2022-11-24T19:06:32.072Z,98720.53
2022-11-24T19:09:05.316Z,98717.25
2022-11-24T19:11:35.895Z,98718.44
2022-11-24T19:14:06.497Z,98721.72
2022-11-24T19:16:35.098Z,98734.19
2022-11-24T19:19:03.866Z,98733.38
2022-11-24T19:21:33.437Z,98735.03
2022-11-24T19:24:05.306Z,98736.03
2022-11-24T19:26:37.462Z,98742.50
2022-11-24T19:29:06.227Z,98751.13
2022-11-24T19:31:35.098Z,98769.88
2022-11-24T19:34:03.642Z,98777.53
2022-11-24T19:36:31.727Z,98775.31
2022-11-24T19:38:59.940Z,98776.34
2022-11-24T19:41:30.220Z,98766.53
2022-11-24T19:43:58.849Z,98764.56
2022-11-24T19:46:29.631Z,98769.25
2022-11-24T19:49:00.535Z,98755.81
2022-11-24T19:51:33.192Z,98756.97
2022-11-24T19:54:01.363Z,98745.81
2022-11-24T19:56:31.466Z,98733.69
2022-11-24T19:58:59.136Z,98726.72
2022-11-24T20:01:30.129Z,98721.22
2022-11-24T20:04:06.342Z,98727.69
2022-11-24T20:06:37.419Z,98727.56
2022-11-24T20:09:07.883Z,98747.81
2022-11-24T20:11:36.183Z,98740.50
2022-11-24T20:14:04.192Z,98757.44
2022-11-24T20:16:33.818Z,98766.56
2022-11-24T20:19:07.372Z,98774.00
2022-11-24T20:21:36.417Z,98784.63
2022-11-24T20:24:07.557Z,98769.69
2022-11-24T20:26:38.249Z,98777.66
2022-11-24T20:29:06.464Z,98770.00
2022-11-24T20:31:39.891Z,98759.56
2022-11-24T20:34:08.742Z,98768.69
2022-11-24T20:36:38.653Z,98759.72
2022-11-24T20:39:09.501Z,98766.38
2022-11-24T20:41:39.042Z,98756.41
2022-11-24T20:44:10.807Z,98750.47
2022-11-24T20:46:39.698Z,98759.94
2022-11-24T20:49:08.717Z,98759.75
2022-11-24T20:51:42.071Z,98755.13
2022-11-24T20:54:11.512Z,98750.31
2022-11-24T20:56:41.493Z,98750.81
2022-11-24T20:59:16.072Z,98757.63
2022-11-24T21:01:46.065Z,98748.34
2022-11-24T21:04:17.693Z,98763.13
2022-11-24T21:06:45.992Z,98772.94
2022-11-24T21:09:13.592Z,98756.00
2022-11-24T21:11:41.514Z,98761.66
2022-11-24T21:14:09.786Z,98750.53
2022-11-24T21:16:39.495Z,98761.97
2022-11-24T21:19:17.483Z,98770.63
2022-11-24T21:21:47.648Z,98780.16
2022-11-24T21:24:17.585Z,98781.47
2022-11-24T21:26:51.862Z,98795.78
2022-11-24T21:29:22.461Z,98796.94
2022-11-24T21:31:50.329Z,98803.59
2022-11-24T21:34:19.280Z,98798.97
2022-11-24T21:36:47.372Z,98814.91
2022-11-24T21:39:15.648Z,98826.03
2022-11-24T21:41:43.741Z,98818.56
2022-11-24T21:44:13.508Z,98810.72
2022-11-24T21:46:45.925Z,98812.16
2022-11-24T21:49:17.085Z,98813.63
2022-11-24T21:51:44.616Z,98811.47
2022-11-24T21:54:12.187Z,98802.31
2022-11-24T21:56:39.713Z,98806.50
2022-11-24T21:59:07.352Z,98804.50
2022-11-24T22:01:35.016Z,98815.97
2022-11-24T22:04:03.292Z,98832.75
2022-11-24T22:06:32.101Z,98837.22
2022-11-24T22:08:59.645Z,98831.56
2022-11-24T22:11:27.149Z,98836.53
2022-11-24T22:13:54.818Z,98846.66
2022-11-24T22:16:24.287Z,98844.47
2022-11-24T22:18:52.220Z,98852.44
2022-11-24T22:21:33.601Z,98848.94
2022-11-24T22:24:01.603Z,98842.63
2022-11-24T22:26:30.049Z,98853.13
2022-11-24T22:28:58.690Z,98866.22
2022-11-24T22:31:28.588Z,98862.44
2022-11-24T22:33:57.411Z,98880.03
2022-11-24T22:36:28.903Z,98879.72
2022-11-24T22:38:58.885Z,98887.53
2022-11-24T22:41:26.477Z,98889.38
2022-11-24T22:43:54.303Z,98903.50
2022-11-24T22:46:26.448Z,98899.81
2022-11-24T22:48:55.232Z,98899.81
2022-11-24T22:51:26.369Z,98904.50
2022-11-24T22:53:59.534Z,98909.13
2022-11-24T22:56:32.549Z,98917.25
2022-11-24T22:59:01.458Z,98921.72
2022-11-24T23:01:29.911Z,98929.69
2022-11-24T23:03:58.045Z,98936.00
2022-11-24T23:06:28.800Z,98949.31
2022-11-24T23:08:58.357Z,98947.66
2022-11-24T23:11:37.980Z,98944.97
2022-11-24T23:14:11.808Z,98962.59
2022-11-24T23:16:39.659Z,98961.75
2022-11-24T23:19:07.357Z,98961.06
2022-11-24T23:21:38.569Z,98958.28
2022-11-24T23:24:07.171Z,98959.25
2022-11-24T23:26:37.200Z,98962.06
2022-11-24T23:29:05.773Z,98967.38
2022-11-24T23:31:33.460Z,98965.56
2022-11-24T23:34:02.626Z,98973.69
2022-11-24T23:36:31.110Z,98982.81
2022-11-24T23:39:07.004Z,98990.41
2022-11-24T23:41:34.912Z,98992.53
2022-11-24T23:44:02.699Z,99006.00
2022-11-24T23:46:30.552Z,99007.13
2022-11-24T23:48:58.144Z,99015.09
2022-11-24T23:51:28.212Z,99015.94
2022-11-24T23:53:56.962Z,99017.75
2022-11-24T23:56:33.258Z,99035.97
2022-11-24T23:59:03.007Z,99040.31
